createdAt,value
2019-02-12T00:02:07.852Z,1.67
2019-02-12T00:07:11.195Z,1.80
2019-02-12T00:12:15.705Z,1.37
2019-02-12T00:17:19.056Z,1.40
2019-02-12T00:22:22.729Z,1.40
2019-02-12T00:27:26.079Z,2.40
2019-02-12T00:32:29.400Z,1.40
2019-02-12T00:37:51.698Z,1.70
2019-02-12T00:42:57.920Z,1.60
2019-02-12T00:48:02.910Z,2.43
2019-02-12T00:53:08.163Z,1.53
2019-02-12T00:58:11.447Z,1.70
2019-02-12T01:03:14.806Z,1.47
2019-02-12T01:08:18.017Z,1.40
2019-02-12T01:13:21.401Z,1.70
2019-02-12T01:18:28.116Z,1.50
2019-02-12T01:23:31.514Z,2.23
2019-02-12T01:28:34.942Z,1.50
2019-02-12T01:33:38.311Z,1.23
2019-02-12T01:38:41.739Z,1.60
2019-02-12T01:43:45.283Z,1.27
2019-02-12T01:48:50.642Z,1.40
2019-02-12T01:53:54.128Z,1.57
2019-02-12T01:59:00.482Z,3.47
2019-02-12T02:04:05.726Z,1.33
2019-02-12T02:09:09.310Z,1.50
2019-02-12T02:14:15.791Z,1.87
2019-02-12T02:19:25.557Z,1.30
2019-02-12T02:24:29.097Z,1.30
2019-02-12T02:29:32.791Z,1.17
2019-02-12T02:34:36.136Z,1.60
2019-02-12T02:39:39.440Z,1.90
2019-02-12T02:44:42.683Z,1.10
2019-02-12T02:49:46.094Z,1.10
2019-02-12T02:54:49.553Z,1.40
2019-02-12T03:00:06.436Z,1.07
2019-02-12T03:05:10.229Z,1.73
2019-02-12T03:10:13.822Z,1.50
2019-02-12T03:15:20.171Z,1.70
2019-02-12T03:20:23.716Z,1.47
2019-02-12T03:25:27.334Z,2.13
2019-02-12T03:30:30.681Z,1.50
2019-02-12T03:35:34.161Z,0.97
2019-02-12T03:40:37.838Z,1.10
2019-02-12T03:45:41.343Z,1.10
2019-02-12T03:50:47.897Z,1.37
2019-02-12T03:55:51.339Z,1.30
2019-02-12T04:00:55.063Z,1.17
2019-02-12T04:05:58.632Z,1.30
2019-02-12T04:11:04.765Z,1.20
2019-02-12T04:16:16.866Z,0.90
2019-02-12T04:21:22.344Z,1.70
2019-02-12T04:26:28.195Z,1.20
2019-02-12T04:31:33.048Z,1.40
2019-02-12T04:36:39.177Z,1.57
2019-02-12T04:41:42.557Z,1.47
2019-02-12T04:46:45.901Z,1.70
2019-02-12T04:57:04.074Z,1.27
2019-02-12T05:02:07.357Z,1.47
2019-02-12T05:07:11.024Z,1.40
2019-02-12T05:12:18.563Z,1.33
2019-02-12T05:17:22.151Z,1.73
2019-02-12T05:22:25.702Z,1.60
2019-02-12T05:27:28.905Z,1.27
2019-02-12T05:32:32.589Z,2.63
2019-02-12T05:37:42.147Z,1.27
2019-02-12T05:42:47.005Z,1.90
2019-02-12T05:47:53.592Z,1.50
2019-02-12T05:52:56.961Z,1.90
2019-02-12T05:58:00.507Z,1.70
2019-02-12T06:03:03.758Z,1.30
2019-02-12T06:08:07.233Z,2.13
2019-02-12T06:13:10.479Z,1.37
2019-02-12T06:18:21.490Z,2.00
2019-02-12T06:23:27.915Z,2.47
2019-02-12T06:28:38.802Z,1.73
2019-02-12T06:33:43.309Z,1.60
2019-02-12T06:38:47.912Z,1.93
2019-02-12T06:43:51.806Z,1.67
2019-02-12T06:48:55.178Z,2.20
2019-02-12T06:54:01.297Z,2.60
2019-02-12T06:59:04.558Z,1.63
2019-02-12T07:04:24.174Z,2.87
2019-02-12T07:10:11.126Z,2.00
2019-02-12T07:15:18.923Z,2.00
2019-02-12T07:21:06.429Z,2.30
2019-02-12T07:27:03.662Z,2.30
2019-02-12T07:32:32.477Z,2.50
2019-02-12T07:38:50.663Z,2.10
2019-02-12T07:44:17.811Z,2.50
2019-02-12T07:50:04.227Z,2.60
2019-02-12T07:55:55.880Z,3.00
2019-02-12T08:01:43.723Z,1.90
2019-02-12T08:07:28.509Z,1.90
2019-02-12T08:13:15.235Z,1.90
2019-02-12T08:18:37.185Z,2.10
2019-02-12T08:24:06.200Z,1.97
2019-02-12T08:29:54.052Z,2.20
2019-02-12T08:35:39.307Z,1.87
2019-02-12T08:41:30.172Z,2.67
2019-02-12T08:47:12.289Z,1.70
2019-02-12T08:53:01.883Z,2.13
2019-02-12T08:59:01.108Z,1.83
2019-02-12T09:04:32.681Z,2.50
2019-02-12T09:10:19.406Z,1.93
2019-02-12T09:15:59.711Z,1.50
2019-02-12T09:21:18.288Z,2.00
2019-02-12T09:27:10.938Z,1.80
2019-02-12T09:33:20.282Z,1.90
2019-02-12T09:39:05.271Z,2.27
2019-02-12T09:44:47.795Z,1.70
2019-02-12T09:50:27.867Z,2.17
2019-02-12T09:55:57.008Z,2.30
2019-02-12T10:01:38.901Z,2.77
2019-02-12T10:07:16.207Z,2.00
2019-02-12T10:12:44.092Z,2.37
2019-02-12T10:18:45.876Z,2.70
2019-02-12T10:24:25.234Z,2.53
2019-02-12T10:30:00.796Z,2.90
2019-02-12T10:35:04.266Z,1.90
2019-02-12T10:40:07.733Z,2.30
2019-02-12T10:45:15.949Z,2.10
2019-02-12T10:50:25.341Z,2.20
2019-02-12T10:55:28.713Z,2.73
2019-02-12T11:00:31.976Z,3.27
2019-02-12T11:05:40.034Z,3.37
2019-02-12T11:10:46.980Z,2.30
2019-02-12T11:15:51.743Z,2.30
2019-02-12T11:20:55.239Z,2.90
2019-02-12T11:25:58.566Z,2.17
2019-02-12T11:31:04.646Z,2.10
2019-02-12T11:36:07.861Z,1.97
2019-02-12T11:41:11.233Z,1.70
2019-02-12T11:46:14.562Z,1.90
2019-02-12T11:51:20.865Z,1.80
2019-02-12T11:56:26.368Z,2.20
2019-02-12T12:01:31.415Z,2.10
2019-02-12T12:06:34.930Z,2.17
2019-02-12T12:11:40.698Z,2.30
2019-02-12T12:16:44.171Z,2.03
2019-02-12T12:21:48.113Z,1.80
2019-02-12T12:26:51.627Z,1.70
2019-02-12T12:31:56.342Z,1.80
2019-02-12T12:37:01.412Z,1.73
2019-02-12T12:42:04.842Z,1.80
2019-02-12T12:47:08.138Z,1.60
2019-02-12T12:52:11.412Z,1.30
2019-02-12T12:57:17.809Z,1.80
2019-02-12T13:02:21.094Z,1.63
2019-02-12T13:07:25.409Z,2.13
2019-02-12T13:12:30.265Z,1.97
2019-02-12T13:17:33.792Z,1.97
2019-02-12T13:22:37.223Z,2.10
2019-02-12T13:27:40.693Z,1.30
2019-02-12T13:32:44.129Z,1.50
2019-02-12T13:37:47.756Z,1.30
2019-02-12T13:42:51.136Z,1.87
2019-02-12T13:47:54.957Z,1.50
2019-02-12T13:52:58.331Z,1.67
2019-02-12T13:58:04.592Z,1.40
2019-02-12T14:03:08.206Z,2.03
2019-02-12T14:08:13.165Z,1.37
2019-02-12T14:13:16.871Z,1.47
2019-02-12T14:18:20.239Z,1.40
2019-02-12T14:23:23.867Z,1.57
2019-02-12T14:28:27.482Z,1.60
2019-02-12T14:33:31.581Z,1.37
2019-02-12T14:38:34.883Z,1.77
2019-02-12T14:43:38.748Z,1.43
2019-02-12T14:48:42.248Z,1.37
2019-02-12T14:53:45.684Z,2.80
2019-02-12T14:58:49.123Z,1.50
2019-02-12T15:03:53.013Z,1.40
2019-02-12T15:08:58.970Z,1.17
2019-02-12T15:14:05.725Z,1.10
2019-02-12T15:19:10.978Z,1.80
2019-02-12T15:24:17.727Z,1.40
2019-02-12T15:29:21.551Z,1.60
2019-02-12T15:34:31.007Z,1.10
2019-02-12T15:39:37.591Z,1.60
2019-02-12T15:44:46.668Z,1.80
2019-02-12T15:49:52.079Z,1.90
2019-02-12T15:54:55.611Z,2.47
2019-02-12T15:59:59.026Z,1.67
2019-02-12T16:05:02.487Z,2.33
2019-02-12T16:10:08.039Z,2.50
2019-02-12T16:15:12.943Z,2.37
2019-02-12T16:20:18.141Z,1.50
2019-02-12T16:25:21.368Z,2.30
2019-02-12T16:30:24.830Z,2.53
2019-02-12T16:35:47.212Z,1.90
2019-02-12T16:40:52.569Z,2.00
2019-02-12T16:45:59.770Z,1.50
2019-02-12T16:51:05.534Z,1.83
2019-02-12T16:56:08.901Z,1.80
2019-02-12T17:01:12.268Z,1.90
2019-02-12T17:06:15.915Z,2.70
2019-02-12T17:11:25.245Z,1.90
2019-02-12T17:16:31.818Z,2.00
2019-02-12T17:21:35.348Z,2.30
2019-02-12T17:26:38.712Z,2.00
2019-02-12T17:31:42.636Z,2.83
2019-02-12T17:36:46.115Z,2.37
2019-02-12T17:41:49.702Z,2.17
2019-02-12T17:46:53.284Z,2.23
2019-02-12T17:51:59.567Z,3.47
2019-02-12T17:57:03.164Z,2.93
2019-02-12T18:02:06.563Z,2.53
2019-02-12T18:07:12.753Z,2.27
2019-02-12T18:12:17.137Z,2.67
2019-02-12T18:17:23.798Z,2.53
2019-02-12T18:22:29.574Z,2.70
2019-02-12T18:27:33.288Z,2.67
2019-02-12T18:32:36.790Z,3.37
2019-02-12T18:37:40.423Z,3.23
2019-02-12T18:42:43.879Z,3.30
2019-02-12T18:47:47.618Z,3.93
2019-02-12T18:52:51.137Z,4.47
2019-02-12T18:57:59.808Z,5.13
2019-02-12T19:03:03.422Z,5.23
2019-02-12T19:08:06.667Z,4.80
2019-02-12T19:13:10.179Z,5.77
2019-02-12T19:18:20.057Z,5.63
2019-02-12T19:23:44.524Z,5.50
2019-02-12T19:28:49.575Z,5.90
2019-02-12T19:33:52.435Z,6.20
2019-02-12T19:38:57.183Z,6.60
2019-02-12T19:44:00.497Z,6.80
2019-02-12T19:49:08.267Z,8.37
2019-02-12T19:54:12.063Z,8.40
2019-02-12T19:59:15.513Z,9.00
2019-02-12T20:04:24.936Z,8.57
2019-02-12T20:09:28.283Z,9.20
2019-02-12T20:14:31.819Z,11.13
2019-02-12T20:19:34.813Z,10.30
2019-02-12T20:24:38.111Z,10.60
2019-02-12T20:29:41.331Z,12.03
2019-02-12T20:34:44.685Z,12.30
2019-02-12T20:39:48.203Z,13.50
2019-02-12T20:44:52.296Z,15.50
2019-02-12T20:49:56.726Z,14.63
2019-02-12T20:55:07.002Z,15.80
2019-02-12T21:00:19.831Z,13.73
2019-02-12T21:05:23.186Z,13.90
2019-02-12T21:10:29.575Z,14.70
2019-02-12T21:15:33.017Z,13.43
2019-02-12T21:20:36.599Z,13.47
2019-02-12T21:25:40.117Z,14.57
2019-02-12T21:30:43.504Z,14.93
2019-02-12T21:35:49.994Z,15.93
2019-02-12T21:40:53.509Z,16.07
2019-02-12T21:45:58.376Z,15.30
2019-02-12T21:51:01.660Z,17.37
2019-02-12T21:56:05.422Z,16.33
2019-02-12T22:01:09.921Z,17.47
2019-02-12T22:06:13.228Z,16.60
2019-02-12T22:11:16.664Z,18.60
2019-02-12T22:16:21.868Z,17.90
2019-02-12T22:21:29.943Z,18.70
2019-02-12T22:26:33.122Z,20.40
2019-02-12T22:31:38.305Z,18.87
2019-02-12T22:36:41.817Z,19.80
2019-02-12T22:41:48.627Z,18.87
2019-02-12T22:46:52.897Z,20.00
2019-02-12T22:51:56.144Z,19.17
2019-02-12T22:57:05.361Z,20.70
2019-02-12T23:02:08.941Z,21.03
2019-02-12T23:07:12.309Z,21.73
2019-02-12T23:12:15.594Z,21.20
2019-02-12T23:17:19.493Z,20.50
2019-02-12T23:22:22.811Z,21.23
2019-02-12T23:27:26.050Z,21.73
2019-02-12T23:32:29.520Z,22.57
2019-02-12T23:37:32.917Z,22.70
2019-02-12T23:42:36.195Z,23.07
2019-02-12T23:47:39.553Z,22.00
2019-02-12T23:52:43.044Z,22.40
2019-02-12T23:57:46.658Z,23.83
